sensor_id;sensor_type;location;lat;lon;timestamp;temperature;humidity
563;DHT22;266;49.514;8.294;2023-04-03T00:01:10;4.20;99.90
563;DHT22;266;49.514;8.294;2023-04-03T00:03:38;4.10;99.90
563;DHT22;266;49.514;8.294;2023-04-03T00:06:08;4.00;99.90
563;DHT22;266;49.514;8.294;2023-04-03T00:08:38;4.00;99.90
563;DHT22;266;49.514;8.294;2023-04-03T00:11:08;3.90;99.90
563;DHT22;266;49.514;8.294;2023-04-03T00:13:37;3.80;99.90
563;DHT22;266;49.514;8.294;2023-04-03T00:16:06;3.80;99.90
563;DHT22;266;49.514;8.294;2023-04-03T00:18:34;3.70;99.90
563;DHT22;266;49.514;8.294;2023-04-03T00:21:03;3.70;99.90
563;DHT22;266;49.514;8.294;2023-04-03T00:23:31;3.70;99.90
563;DHT22;266;49.514;8.294;2023-04-03T00:25:59;3.70;99.90
563;DHT22;266;49.514;8.294;2023-04-03T00:28:29;3.70;99.90
563;DHT22;266;49.514;8.294;2023-04-03T00:30:57;3.60;99.90
563;DHT22;266;49.514;8.294;2023-04-03T00:33:25;3.60;99.90
563;DHT22;266;49.514;8.294;2023-04-03T00:35:53;3.60;99.90
563;DHT22;266;49.514;8.294;2023-04-03T00:38:21;3.60;99.90
563;DHT22;266;49.514;8.294;2023-04-03T00:40:49;3.50;99.90
563;DHT22;266;49.514;8.294;2023-04-03T00:43:20;3.50;99.90
563;DHT22;266;49.514;8.294;2023-04-03T00:45:50;3.50;99.90
563;DHT22;266;49.514;8.294;2023-04-03T00:48:21;3.50;99.90
563;DHT22;266;49.514;8.294;2023-04-03T00:50:50;3.50;99.90
563;DHT22;266;49.514;8.294;2023-04-03T00:53:23;3.50;99.90
563;DHT22;266;49.514;8.294;2023-04-03T00:55:53;3.40;99.90
563;DHT22;266;49.514;8.294;2023-04-03T00:58:26;3.30;99.90
563;DHT22;266;49.514;8.294;2023-04-03T01:00:58;3.30;99.90
563;DHT22;266;49.514;8.294;2023-04-03T01:03:26;3.20;99.90
563;DHT22;266;49.514;8.294;2023-04-03T01:05:54;3.20;99.90
563;DHT22;266;49.514;8.294;2023-04-03T01:08:22;3.20;99.90
563;DHT22;266;49.514;8.294;2023-04-03T01:10:50;3.20;99.90
563;DHT22;266;49.514;8.294;2023-04-03T01:13:21;3.10;99.90
563;DHT22;266;49.514;8.294;2023-04-03T01:15:49;3.10;99.90
563;DHT22;266;49.514;8.294;2023-04-03T01:18:19;3.10;99.90
563;DHT22;266;49.514;8.294;2023-04-03T01:21:12;3.10;99.90
563;DHT22;266;49.514;8.294;2023-04-03T01:23:53;3.10;99.90
563;DHT22;266;49.514;8.294;2023-04-03T01:26:22;3.00;99.90
563;DHT22;266;49.514;8.294;2023-04-03T01:28:50;2.90;99.90
563;DHT22;266;49.514;8.294;2023-04-03T01:31:22;2.80;99.90
563;DHT22;266;49.514;8.294;2023-04-03T01:33:53;2.80;99.90
563;DHT22;266;49.514;8.294;2023-04-03T01:36:23;2.80;99.90
563;DHT22;266;49.514;8.294;2023-04-03T01:38:53;2.80;99.90
563;DHT22;266;49.514;8.294;2023-04-03T01:41:21;2.80;99.90
563;DHT22;266;49.514;8.294;2023-04-03T01:43:49;2.80;99.90
563;DHT22;266;49.514;8.294;2023-04-03T01:46:18;2.80;99.90
563;DHT22;266;49.514;8.294;2023-04-03T01:48:47;2.80;99.90
563;DHT22;266;49.514;8.294;2023-04-03T01:51:16;2.80;99.90
563;DHT22;266;49.514;8.294;2023-04-03T01:53:44;2.70;99.90
563;DHT22;266;49.514;8.294;2023-04-03T01:56:12;2.70;99.90
563;DHT22;266;49.514;8.294;2023-04-03T01:58:41;2.70;99.90
563;DHT22;266;49.514;8.294;2023-04-03T02:01:09;2.70;99.90
563;DHT22;266;49.514;8.294;2023-04-03T02:03:37;2.70;99.90
563;DHT22;266;49.514;8.294;2023-04-03T02:06:05;2.70;99.90
563;DHT22;266;49.514;8.294;2023-04-03T02:08:35;2.70;99.90
563;DHT22;266;49.514;8.294;2023-04-03T02:11:02;2.70;99.90
563;DHT22;266;49.514;8.294;2023-04-03T02:13:30;2.70;99.90
563;DHT22;266;49.514;8.294;2023-04-03T02:15:58;2.70;99.90
563;DHT22;266;49.514;8.294;2023-04-03T02:18:26;2.70;99.90
563;DHT22;266;49.514;8.294;2023-04-03T02:20:54;2.60;99.90
563;DHT22;266;49.514;8.294;2023-04-03T02:23:22;2.60;99.90
563;DHT22;266;49.514;8.294;2023-04-03T02:25:51;2.60;99.90
563;DHT22;266;49.514;8.294;2023-04-03T02:28:19;2.60;99.90
563;DHT22;266;49.514;8.294;2023-04-03T02:30:47;2.60;99.90
563;DHT22;266;49.514;8.294;2023-04-03T02:33:15;2.60;99.90
563;DHT22;266;49.514;8.294;2023-04-03T02:35:42;2.50;99.90
563;DHT22;266;49.514;8.294;2023-04-03T02:38:12;2.50;99.90
563;DHT22;266;49.514;8.294;2023-04-03T02:40:41;2.50;99.90
563;DHT22;266;49.514;8.294;2023-04-03T02:43:10;2.50;99.90
563;DHT22;266;49.514;8.294;2023-04-03T02:45:38;2.40;99.90
563;DHT22;266;49.514;8.294;2023-04-03T02:48:06;2.50;99.90
563;DHT22;266;49.514;8.294;2023-04-03T02:50:34;2.50;99.90
563;DHT22;266;49.514;8.294;2023-04-03T02:53:02;2.50;99.90
563;DHT22;266;49.514;8.294;2023-04-03T02:55:30;2.50;99.90
563;DHT22;266;49.514;8.294;2023-04-03T02:57:58;2.50;99.90
563;DHT22;266;49.514;8.294;2023-04-03T03:00:27;2.50;99.90
563;DHT22;266;49.514;8.294;2023-04-03T03:02:55;2.50;99.90
563;DHT22;266;49.514;8.294;2023-04-03T03:05:23;2.50;99.90
563;DHT22;266;49.514;8.294;2023-04-03T03:07:51;2.50;99.90
563;DHT22;266;49.514;8.294;2023-04-03T03:10:19;2.40;99.90
563;DHT22;266;49.514;8.294;2023-04-03T03:12:47;2.40;99.90
563;DHT22;266;49.514;8.294;2023-04-03T03:15:15;2.30;99.90
563;DHT22;266;49.514;8.294;2023-04-03T03:17:45;2.30;99.90
563;DHT22;266;49.514;8.294;2023-04-03T03:20:13;2.20;99.90
563;DHT22;266;49.514;8.294;2023-04-03T03:22:42;2.20;99.90
563;DHT22;266;49.514;8.294;2023-04-03T03:25:11;2.20;99.90
563;DHT22;266;49.514;8.294;2023-04-03T03:27:39;2.10;99.90
563;DHT22;266;49.514;8.294;2023-04-03T03:30:07;2.20;99.90
563;DHT22;266;49.514;8.294;2023-04-03T03:32:36;2.20;99.90
563;DHT22;266;49.514;8.294;2023-04-03T03:35:05;2.20;99.90
563;DHT22;266;49.514;8.294;2023-04-03T03:37:33;2.20;99.90
563;DHT22;266;49.514;8.294;2023-04-03T03:40:01;2.20;99.90
563;DHT22;266;49.514;8.294;2023-04-03T03:42:29;2.20;99.90
563;DHT22;266;49.514;8.294;2023-04-03T03:44:57;2.20;99.90
563;DHT22;266;49.514;8.294;2023-04-03T03:47:25;2.20;99.90
563;DHT22;266;49.514;8.294;2023-04-03T03:49:53;2.10;99.90
563;DHT22;266;49.514;8.294;2023-04-03T03:52:22;2.20;99.90
563;DHT22;266;49.514;8.294;2023-04-03T03:54:50;2.10;99.90
563;DHT22;266;49.514;8.294;2023-04-03T03:57:18;2.10;99.90
563;DHT22;266;49.514;8.294;2023-04-03T03:59:46;2.00;99.90
563;DHT22;266;49.514;8.294;2023-04-03T04:02:15;2.00;99.90
563;DHT22;266;49.514;8.294;2023-04-03T04:04:43;1.90;99.90
563;DHT22;266;49.514;8.294;2023-04-03T04:07:11;1.90;99.90
563;DHT22;266;49.514;8.294;2023-04-03T04:09:40;1.90;99.90
563;DHT22;266;49.514;8.294;2023-04-03T04:12:08;1.90;99.90
563;DHT22;266;49.514;8.294;2023-04-03T04:14:36;1.90;99.90
563;DHT22;266;49.514;8.294;2023-04-03T04:17:04;1.80;99.90
563;DHT22;266;49.514;8.294;2023-04-03T04:19:32;1.80;99.90
563;DHT22;266;49.514;8.294;2023-04-03T04:22:00;1.80;99.90
563;DHT22;266;49.514;8.294;2023-04-03T04:24:28;1.80;99.90
563;DHT22;266;49.514;8.294;2023-04-03T04:26:58;1.70;99.90
563;DHT22;266;49.514;8.294;2023-04-03T04:29:26;1.70;99.90
563;DHT22;266;49.514;8.294;2023-04-03T04:31:54;1.70;99.90
563;DHT22;266;49.514;8.294;2023-04-03T04:34:21;1.60;99.90
563;DHT22;266;49.514;8.294;2023-04-03T04:36:49;1.60;99.90
563;DHT22;266;49.514;8.294;2023-04-03T04:39:17;1.60;99.90
563;DHT22;266;49.514;8.294;2023-04-03T04:41:45;1.50;99.90
563;DHT22;266;49.514;8.294;2023-04-03T04:44:14;1.50;99.90
563;DHT22;266;49.514;8.294;2023-04-03T04:46:42;1.50;99.90
563;DHT22;266;49.514;8.294;2023-04-03T04:49:10;1.40;99.90
563;DHT22;266;49.514;8.294;2023-04-03T04:51:38;1.40;99.90
563;DHT22;266;49.514;8.294;2023-04-03T04:54:18;1.40;99.90
563;DHT22;266;49.514;8.294;2023-04-03T04:56:46;1.40;99.90
563;DHT22;266;49.514;8.294;2023-04-03T04:59:15;1.40;99.90
563;DHT22;266;49.514;8.294;2023-04-03T05:01:46;1.50;99.90
563;DHT22;266;49.514;8.294;2023-04-03T05:04:14;1.50;99.90
563;DHT22;266;49.514;8.294;2023-04-03T05:06:42;1.60;99.90
563;DHT22;266;49.514;8.294;2023-04-03T05:09:10;1.60;99.90
563;DHT22;266;49.514;8.294;2023-04-03T05:11:38;1.70;99.90
563;DHT22;266;49.514;8.294;2023-04-03T05:14:06;1.70;99.90
563;DHT22;266;49.514;8.294;2023-04-03T05:16:35;1.70;99.90
563;DHT22;266;49.514;8.294;2023-04-03T05:19:03;1.80;99.90
563;DHT22;266;49.514;8.294;2023-04-03T05:21:31;1.90;99.90
563;DHT22;266;49.514;8.294;2023-04-03T05:24:00;1.90;99.90
563;DHT22;266;49.514;8.294;2023-04-03T05:26:30;2.00;99.90
563;DHT22;266;49.514;8.294;2023-04-03T05:28:58;2.00;99.90
563;DHT22;266;49.514;8.294;2023-04-03T05:31:26;2.10;99.90
563;DHT22;266;49.514;8.294;2023-04-03T05:33:57;2.10;99.90
563;DHT22;266;49.514;8.294;2023-04-03T05:36:26;2.20;99.90
563;DHT22;266;49.514;8.294;2023-04-03T05:38:54;2.20;99.90
563;DHT22;266;49.514;8.294;2023-04-03T05:41:23;2.30;99.90
563;DHT22;266;49.514;8.294;2023-04-03T05:43:51;2.30;99.90
563;DHT22;266;49.514;8.294;2023-04-03T05:46:19;2.40;99.90
563;DHT22;266;49.514;8.294;2023-04-03T05:48:48;2.40;99.90
563;DHT22;266;49.514;8.294;2023-04-03T05:51:19;2.50;99.90
563;DHT22;266;49.514;8.294;2023-04-03T05:53:50;2.60;99.90
563;DHT22;266;49.514;8.294;2023-04-03T05:56:19;2.60;99.90
563;DHT22;266;49.514;8.294;2023-04-03T05:58:47;2.70;99.90
563;DHT22;266;49.514;8.294;2023-04-03T06:01:15;2.80;99.90
563;DHT22;266;49.514;8.294;2023-04-03T06:03:43;2.90;99.90
563;DHT22;266;49.514;8.294;2023-04-03T06:06:13;3.00;99.90
563;DHT22;266;49.514;8.294;2023-04-03T06:08:42;3.10;99.90
563;DHT22;266;49.514;8.294;2023-04-03T06:11:11;3.20;99.90
563;DHT22;266;49.514;8.294;2023-04-03T06:13:39;3.20;99.90
563;DHT22;266;49.514;8.294;2023-04-03T06:16:08;3.30;99.90
563;DHT22;266;49.514;8.294;2023-04-03T06:18:36;3.30;99.90
563;DHT22;266;49.514;8.294;2023-04-03T06:21:04;3.30;99.90
563;DHT22;266;49.514;8.294;2023-04-03T06:23:34;3.40;99.90
563;DHT22;266;49.514;8.294;2023-04-03T06:26:03;3.40;99.90
563;DHT22;266;49.514;8.294;2023-04-03T06:28:32;3.50;99.90
563;DHT22;266;49.514;8.294;2023-04-03T06:31:00;3.60;99.90
563;DHT22;266;49.514;8.294;2023-04-03T06:33:28;3.60;99.90
563;DHT22;266;49.514;8.294;2023-04-03T06:35:57;3.70;99.90
563;DHT22;266;49.514;8.294;2023-04-03T06:38:25;3.70;99.90
563;DHT22;266;49.514;8.294;2023-04-03T06:40:53;3.80;99.90
563;DHT22;266;49.514;8.294;2023-04-03T06:43:24;3.80;99.90
563;DHT22;266;49.514;8.294;2023-04-03T06:45:53;3.90;99.90
563;DHT22;266;49.514;8.294;2023-04-03T06:48:21;4.00;99.90
563;DHT22;266;49.514;8.294;2023-04-03T06:50:49;4.10;99.90
563;DHT22;266;49.514;8.294;2023-04-03T06:53:17;4.10;99.90
563;DHT22;266;49.514;8.294;2023-04-03T06:55:45;4.20;99.90
563;DHT22;266;49.514;8.294;2023-04-03T06:58:13;4.30;99.90
563;DHT22;266;49.514;8.294;2023-04-03T07:00:46;4.40;99.90
563;DHT22;266;49.514;8.294;2023-04-03T07:03:14;4.40;99.90
563;DHT22;266;49.514;8.294;2023-04-03T07:05:42;4.50;99.90
563;DHT22;266;49.514;8.294;2023-04-03T07:08:11;4.50;99.90
563;DHT22;266;49.514;8.294;2023-04-03T07:10:39;4.60;99.90
563;DHT22;266;49.514;8.294;2023-04-03T07:13:07;4.80;99.90
563;DHT22;266;49.514;8.294;2023-04-03T07:15:35;4.90;99.90
563;DHT22;266;49.514;8.294;2023-04-03T07:18:05;4.90;99.90
563;DHT22;266;49.514;8.294;2023-04-03T07:20:33;5.10;99.90
563;DHT22;266;49.514;8.294;2023-04-03T07:23:01;5.10;99.90
563;DHT22;266;49.514;8.294;2023-04-03T07:25:30;5.20;99.90
563;DHT22;266;49.514;8.294;2023-04-03T07:27:58;5.20;99.90
563;DHT22;266;49.514;8.294;2023-04-03T07:30:26;5.30;99.90
563;DHT22;266;49.514;8.294;2023-04-03T07:32:54;5.50;99.90
563;DHT22;266;49.514;8.294;2023-04-03T07:35:23;5.70;99.90
563;DHT22;266;49.514;8.294;2023-04-03T07:37:51;5.70;99.90
563;DHT22;266;49.514;8.294;2023-04-03T07:40:19;5.80;99.90
563;DHT22;266;49.514;8.294;2023-04-03T07:42:48;5.80;99.90
563;DHT22;266;49.514;8.294;2023-04-03T07:45:17;6.00;99.90
563;DHT22;266;49.514;8.294;2023-04-03T07:47:46;6.30;99.90
563;DHT22;266;49.514;8.294;2023-04-03T07:50:14;6.60;99.90
563;DHT22;266;49.514;8.294;2023-04-03T07:52:44;6.90;99.90
563;DHT22;266;49.514;8.294;2023-04-03T07:55:12;7.20;99.90
563;DHT22;266;49.514;8.294;2023-04-03T07:57:41;7.60;99.90
563;DHT22;266;49.514;8.294;2023-04-03T08:00:10;7.90;99.90
563;DHT22;266;49.514;8.294;2023-04-03T08:02:38;8.40;99.90
563;DHT22;266;49.514;8.294;2023-04-03T08:05:07;8.50;99.90
563;DHT22;266;49.514;8.294;2023-04-03T08:07:36;8.60;99.90
563;DHT22;266;49.514;8.294;2023-04-03T08:10:07;8.90;99.90
563;DHT22;266;49.514;8.294;2023-04-03T08:12:35;9.10;99.90
563;DHT22;266;49.514;8.294;2023-04-03T08:15:05;9.40;99.90
563;DHT22;266;49.514;8.294;2023-04-03T08:17:34;9.60;99.90
563;DHT22;266;49.514;8.294;2023-04-03T08:20:03;9.70;99.90
563;DHT22;266;49.514;8.294;2023-04-03T08:22:31;9.80;99.90
563;DHT22;266;49.514;8.294;2023-04-03T08:24:59;10.20;99.90
563;DHT22;266;49.514;8.294;2023-04-03T08:27:29;10.10;99.90
563;DHT22;266;49.514;8.294;2023-04-03T08:29:58;10.10;99.90
563;DHT22;266;49.514;8.294;2023-04-03T08:32:26;10.30;99.90
563;DHT22;266;49.514;8.294;2023-04-03T08:34:54;10.60;99.90
563;DHT22;266;49.514;8.294;2023-04-03T08:37:22;10.90;99.90
563;DHT22;266;49.514;8.294;2023-04-03T08:39:50;11.00;99.90
563;DHT22;266;49.514;8.294;2023-04-03T08:42:28;11.10;99.90
563;DHT22;266;49.514;8.294;2023-04-03T08:45:08;11.40;99.90
563;DHT22;266;49.514;8.294;2023-04-03T08:47:40;11.50;99.90
563;DHT22;266;49.514;8.294;2023-04-03T08:50:13;11.60;99.90
563;DHT22;266;49.514;8.294;2023-04-03T08:52:46;11.80;99.90
563;DHT22;266;49.514;8.294;2023-04-03T08:55:22;12.00;99.90
563;DHT22;266;49.514;8.294;2023-04-03T08:57:57;12.30;99.90
563;DHT22;266;49.514;8.294;2023-04-03T09:00:30;12.20;99.90
563;DHT22;266;49.514;8.294;2023-04-03T09:03:00;12.40;99.90
563;DHT22;266;49.514;8.294;2023-04-03T09:05:35;12.80;99.90
563;DHT22;266;49.514;8.294;2023-04-03T09:08:14;13.10;99.90
563;DHT22;266;49.514;8.294;2023-04-03T09:10:46;12.90;99.90
563;DHT22;266;49.514;8.294;2023-04-03T09:13:24;12.80;99.90
563;DHT22;266;49.514;8.294;2023-04-03T09:15:56;12.80;99.90
563;DHT22;266;49.514;8.294;2023-04-03T09:18:29;12.50;99.90
563;DHT22;266;49.514;8.294;2023-04-03T09:21:04;12.00;99.90
563;DHT22;266;49.514;8.294;2023-04-03T09:23:40;11.70;99.90
563;DHT22;266;49.514;8.294;2023-04-03T09:26:14;11.40;99.90
563;DHT22;266;49.514;8.294;2023-04-03T09:28:44;11.90;99.90
563;DHT22;266;49.514;8.294;2023-04-03T09:31:21;12.20;99.90
563;DHT22;266;49.514;8.294;2023-04-03T09:33:51;12.60;99.90
563;DHT22;266;49.514;8.294;2023-04-03T09:36:43;13.10;99.90
563;DHT22;266;49.514;8.294;2023-04-03T09:39:14;13.30;99.90
563;DHT22;266;49.514;8.294;2023-04-03T09:41:43;13.40;99.90
563;DHT22;266;49.514;8.294;2023-04-03T09:44:23;13.60;99.90
563;DHT22;266;49.514;8.294;2023-04-03T09:46:53;13.50;99.90
563;DHT22;266;49.514;8.294;2023-04-03T09:49:22;12.90;99.90
563;DHT22;266;49.514;8.294;2023-04-03T09:51:50;12.90;99.90
563;DHT22;266;49.514;8.294;2023-04-03T09:54:31;12.40;99.90
563;DHT22;266;49.514;8.294;2023-04-03T09:57:04;12.40;99.90
563;DHT22;266;49.514;8.294;2023-04-03T09:59:33;12.10;99.90
563;DHT22;266;49.514;8.294;2023-04-03T10:02:19;11.70;99.90
563;DHT22;266;49.514;8.294;2023-04-03T10:04:48;11.80;99.90
563;DHT22;266;49.514;8.294;2023-04-03T10:07:35;12.10;99.90
563;DHT22;266;49.514;8.294;2023-04-03T10:10:17;11.90;99.90
563;DHT22;266;49.514;8.294;2023-04-03T10:12:46;11.50;99.90
563;DHT22;266;49.514;8.294;2023-04-03T10:15:16;11.10;99.90
563;DHT22;266;49.514;8.294;2023-04-03T10:17:56;10.80;99.90
563;DHT22;266;49.514;8.294;2023-04-03T10:20:32;10.60;99.90
563;DHT22;266;49.514;8.294;2023-04-03T10:23:15;10.60;99.90
563;DHT22;266;49.514;8.294;2023-04-03T10:25:50;10.50;99.90
563;DHT22;266;49.514;8.294;2023-04-03T10:28:24;10.80;99.90
563;DHT22;266;49.514;8.294;2023-04-03T10:31:00;11.20;99.90
563;DHT22;266;49.514;8.294;2023-04-03T10:33:43;11.30;99.90
563;DHT22;266;49.514;8.294;2023-04-03T10:36:23;11.00;99.90
563;DHT22;266;49.514;8.294;2023-04-03T10:39:00;10.60;99.90
563;DHT22;266;49.514;8.294;2023-04-03T10:41:39;10.10;99.90
563;DHT22;266;49.514;8.294;2023-04-03T10:44:17;10.20;99.90
563;DHT22;266;49.514;8.294;2023-04-03T10:46:49;10.00;99.90
563;DHT22;266;49.514;8.294;2023-04-03T10:49:34;10.00;99.90
563;DHT22;266;49.514;8.294;2023-04-03T10:52:22;10.00;99.90
563;DHT22;266;49.514;8.294;2023-04-03T10:55:00;10.00;99.90
563;DHT22;266;49.514;8.294;2023-04-03T10:57:30;10.40;99.90
563;DHT22;266;49.514;8.294;2023-04-03T11:00:04;10.30;99.90
563;DHT22;266;49.514;8.294;2023-04-03T11:02:37;10.20;99.90
563;DHT22;266;49.514;8.294;2023-04-03T11:05:17;10.20;99.90
563;DHT22;266;49.514;8.294;2023-04-03T11:07:48;9.90;99.90
563;DHT22;266;49.514;8.294;2023-04-03T11:10:25;9.80;99.90
563;DHT22;266;49.514;8.294;2023-04-03T11:12:59;10.00;99.90
563;DHT22;266;49.514;8.294;2023-04-03T11:15:32;10.00;99.90
563;DHT22;266;49.514;8.294;2023-04-03T11:18:04;10.10;99.90
563;DHT22;266;49.514;8.294;2023-04-03T11:20:43;10.00;99.90
563;DHT22;266;49.514;8.294;2023-04-03T11:23:19;10.10;99.90
563;DHT22;266;49.514;8.294;2023-04-03T11:25:51;10.30;99.90
563;DHT22;266;49.514;8.294;2023-04-03T11:28:20;10.60;99.90
563;DHT22;266;49.514;8.294;2023-04-03T11:30:50;10.90;99.90
563;DHT22;266;49.514;8.294;2023-04-03T11:33:31;11.20;99.90
563;DHT22;266;49.514;8.294;2023-04-03T11:36:05;11.40;99.90
563;DHT22;266;49.514;8.294;2023-04-03T11:38:53;11.80;99.90
563;DHT22;266;49.514;8.294;2023-04-03T11:41:28;11.80;99.90
563;DHT22;266;49.514;8.294;2023-04-03T11:43:58;11.50;99.90
563;DHT22;266;49.514;8.294;2023-04-03T11:46:49;11.20;99.90
563;DHT22;266;49.514;8.294;2023-04-03T11:49:50;11.10;99.90
563;DHT22;266;49.514;8.294;2023-04-03T11:55:51;10.30;99.90
563;DHT22;266;49.514;8.294;2023-04-03T11:58:20;10.10;99.90
563;DHT22;266;49.514;8.294;2023-04-03T12:00:54;10.20;99.90
563;DHT22;266;49.514;8.294;2023-04-03T12:09:27;10.60;99.90
563;DHT22;266;49.514;8.294;2023-04-03T12:11:59;11.20;99.90
563;DHT22;266;49.514;8.294;2023-04-03T12:14:28;11.70;99.90
563;DHT22;266;49.514;8.294;2023-04-03T12:16:57;12.40;99.90
563;DHT22;266;49.514;8.294;2023-04-03T12:19:31;12.40;99.90
563;DHT22;266;49.514;8.294;2023-04-03T12:22:13;11.70;99.90
563;DHT22;266;49.514;8.294;2023-04-03T12:24:44;11.30;99.90
563;DHT22;266;49.514;8.294;2023-04-03T12:27:29;11.50;99.90
563;DHT22;266;49.514;8.294;2023-04-03T12:30:10;11.70;99.90
563;DHT22;266;49.514;8.294;2023-04-03T12:35:44;11.20;99.90
563;DHT22;266;49.514;8.294;2023-04-03T12:38:28;11.30;99.90
563;DHT22;266;49.514;8.294;2023-04-03T12:41:18;10.80;99.90
563;DHT22;266;49.514;8.294;2023-04-03T12:44:01;10.70;99.90
563;DHT22;266;49.514;8.294;2023-04-03T12:46:36;10.60;99.90
563;DHT22;266;49.514;8.294;2023-04-03T12:49:20;10.40;99.90
563;DHT22;266;49.514;8.294;2023-04-03T12:51:51;10.50;99.90
563;DHT22;266;49.514;8.294;2023-04-03T12:54:22;10.70;99.90
563;DHT22;266;49.514;8.294;2023-04-03T12:56:52;10.40;99.90
563;DHT22;266;49.514;8.294;2023-04-03T12:59:37;10.30;99.90
563;DHT22;266;49.514;8.294;2023-04-03T13:02:19;10.20;99.90
563;DHT22;266;49.514;8.294;2023-04-03T13:04:48;10.50;99.90
563;DHT22;266;49.514;8.294;2023-04-03T13:07:25;10.70;99.90
563;DHT22;266;49.514;8.294;2023-04-03T13:09:57;10.60;99.90
563;DHT22;266;49.514;8.294;2023-04-03T13:12:25;10.70;99.90
563;DHT22;266;49.514;8.294;2023-04-03T13:14:58;10.50;99.90
563;DHT22;266;49.514;8.294;2023-04-03T13:17:27;10.70;99.90
563;DHT22;266;49.514;8.294;2023-04-03T13:20:10;11.20;99.90
563;DHT22;266;49.514;8.294;2023-04-03T13:22:42;11.10;99.90
563;DHT22;266;49.514;8.294;2023-04-03T13:25:15;11.10;99.90
563;DHT22;266;49.514;8.294;2023-04-03T13:27:44;11.40;99.90
563;DHT22;266;49.514;8.294;2023-04-03T13:30:23;11.30;99.90
563;DHT22;266;49.514;8.294;2023-04-03T13:32:52;11.20;99.90
563;DHT22;266;49.514;8.294;2023-04-03T13:35:32;11.30;99.90
563;DHT22;266;49.514;8.294;2023-04-03T13:38:03;11.40;99.90
563;DHT22;266;49.514;8.294;2023-04-03T13:40:33;11.10;99.90
563;DHT22;266;49.514;8.294;2023-04-03T13:43:18;11.00;99.90
563;DHT22;266;49.514;8.294;2023-04-03T13:45:57;11.10;99.90
563;DHT22;266;49.514;8.294;2023-04-03T13:48:26;11.20;99.90
563;DHT22;266;49.514;8.294;2023-04-03T13:50:58;11.40;99.90
563;DHT22;266;49.514;8.294;2023-04-03T13:53:27;11.50;99.90
563;DHT22;266;49.514;8.294;2023-04-03T13:56:06;11.70;99.90
563;DHT22;266;49.514;8.294;2023-04-03T13:58:35;11.20;99.90
563;DHT22;266;49.514;8.294;2023-04-03T14:01:11;11.10;99.90
563;DHT22;266;49.514;8.294;2023-04-03T14:03:43;11.00;99.90
563;DHT22;266;49.514;8.294;2023-04-03T14:06:14;11.10;99.90
563;DHT22;266;49.514;8.294;2023-04-03T14:08:43;11.30;99.90
563;DHT22;266;49.514;8.294;2023-04-03T14:11:13;11.40;99.90
563;DHT22;266;49.514;8.294;2023-04-03T14:13:43;11.40;99.90
563;DHT22;266;49.514;8.294;2023-04-03T14:16:17;11.30;99.90
563;DHT22;266;49.514;8.294;2023-04-03T14:18:46;10.90;99.90
563;DHT22;266;49.514;8.294;2023-04-03T14:21:17;10.60;99.90
563;DHT22;266;49.514;8.294;2023-04-03T14:23:46;10.30;99.90
563;DHT22;266;49.514;8.294;2023-04-03T14:26:15;9.80;99.90
563;DHT22;266;49.514;8.294;2023-04-03T14:28:44;9.70;99.90
563;DHT22;266;49.514;8.294;2023-04-03T14:31:15;9.90;99.90
563;DHT22;266;49.514;8.294;2023-04-03T14:33:44;10.10;99.90
563;DHT22;266;49.514;8.294;2023-04-03T14:36:14;10.20;99.90
563;DHT22;266;49.514;8.294;2023-04-03T14:38:43;10.30;99.90
563;DHT22;266;49.514;8.294;2023-04-03T14:41:12;10.20;99.90
563;DHT22;266;49.514;8.294;2023-04-03T14:43:43;10.20;99.90
563;DHT22;266;49.514;8.294;2023-04-03T14:46:15;10.40;99.90
563;DHT22;266;49.514;8.294;2023-04-03T14:48:44;10.60;99.90
563;DHT22;266;49.514;8.294;2023-04-03T14:51:14;10.60;99.90
563;DHT22;266;49.514;8.294;2023-04-03T14:53:44;10.70;99.90
563;DHT22;266;49.514;8.294;2023-04-03T14:56:15;10.50;99.90
563;DHT22;266;49.514;8.294;2023-04-03T14:58:44;10.40;99.90
563;DHT22;266;49.514;8.294;2023-04-03T15:01:17;10.30;99.90
563;DHT22;266;49.514;8.294;2023-04-03T15:03:45;10.30;99.90
563;DHT22;266;49.514;8.294;2023-04-03T15:06:14;10.30;99.90
563;DHT22;266;49.514;8.294;2023-04-03T15:08:43;10.40;99.90
563;DHT22;266;49.514;8.294;2023-04-03T15:11:14;10.40;99.90
563;DHT22;266;49.514;8.294;2023-04-03T15:13:42;10.50;99.90
563;DHT22;266;49.514;8.294;2023-04-03T15:16:16;10.70;99.90
563;DHT22;266;49.514;8.294;2023-04-03T15:18:45;10.70;99.90
563;DHT22;266;49.514;8.294;2023-04-03T15:21:14;10.80;99.90
563;DHT22;266;49.514;8.294;2023-04-03T15:23:41;10.90;99.90
563;DHT22;266;49.514;8.294;2023-04-03T15:26:09;11.00;99.90
563;DHT22;266;49.514;8.294;2023-04-03T15:28:39;10.90;99.90
563;DHT22;266;49.514;8.294;2023-04-03T15:31:08;10.60;99.90
563;DHT22;266;49.514;8.294;2023-04-03T15:33:38;10.50;99.90
563;DHT22;266;49.514;8.294;2023-04-03T15:36:06;10.60;99.90
563;DHT22;266;49.514;8.294;2023-04-03T15:38:54;10.70;99.90
563;DHT22;266;49.514;8.294;2023-04-03T15:41:22;10.80;99.90
563;DHT22;266;49.514;8.294;2023-04-03T15:43:50;10.80;99.90
563;DHT22;266;49.514;8.294;2023-04-03T15:46:18;11.00;99.90
563;DHT22;266;49.514;8.294;2023-04-03T15:48:48;11.20;99.90
563;DHT22;266;49.514;8.294;2023-04-03T15:51:16;11.20;99.90
563;DHT22;266;49.514;8.294;2023-04-03T15:53:44;11.40;99.90
563;DHT22;266;49.514;8.294;2023-04-03T15:56:12;11.50;99.90
563;DHT22;266;49.514;8.294;2023-04-03T15:58:39;11.50;99.90
563;DHT22;266;49.514;8.294;2023-04-03T16:01:09;11.50;99.90
563;DHT22;266;49.514;8.294;2023-04-03T16:03:40;11.20;99.90
563;DHT22;266;49.514;8.294;2023-04-03T16:06:13;10.60;99.90
563;DHT22;266;49.514;8.294;2023-04-03T16:08:42;10.20;99.90
563;DHT22;266;49.514;8.294;2023-04-03T16:11:10;10.10;99.90
563;DHT22;266;49.514;8.294;2023-04-03T16:13:38;10.00;99.90
563;DHT22;266;49.514;8.294;2023-04-03T16:16:06;10.10;99.90
563;DHT22;266;49.514;8.294;2023-04-03T16:18:35;10.30;99.90
563;DHT22;266;49.514;8.294;2023-04-03T16:21:03;10.40;99.90
563;DHT22;266;49.514;8.294;2023-04-03T16:23:32;10.50;99.90
563;DHT22;266;49.514;8.294;2023-04-03T16:26:01;10.60;99.90
563;DHT22;266;49.514;8.294;2023-04-03T16:28:29;10.60;99.90
563;DHT22;266;49.514;8.294;2023-04-03T16:30:57;10.70;99.90
563;DHT22;266;49.514;8.294;2023-04-03T16:33:25;10.70;99.90
563;DHT22;266;49.514;8.294;2023-04-03T16:35:53;10.70;99.90
563;DHT22;266;49.514;8.294;2023-04-03T16:38:21;10.60;99.90
563;DHT22;266;49.514;8.294;2023-04-03T16:40:50;10.40;99.90
563;DHT22;266;49.514;8.294;2023-04-03T16:43:19;10.10;99.90
563;DHT22;266;49.514;8.294;2023-04-03T16:45:47;9.90;99.90
563;DHT22;266;49.514;8.294;2023-04-03T16:48:15;9.70;99.90
563;DHT22;266;49.514;8.294;2023-04-03T16:50:46;9.70;99.90
563;DHT22;266;49.514;8.294;2023-04-03T16:53:15;9.60;99.90
563;DHT22;266;49.514;8.294;2023-04-03T16:55:43;9.60;99.90
563;DHT22;266;49.514;8.294;2023-04-03T16:58:13;9.40;99.90
563;DHT22;266;49.514;8.294;2023-04-03T17:00:42;9.20;99.90
563;DHT22;266;49.514;8.294;2023-04-03T17:03:10;9.10;99.90
563;DHT22;266;49.514;8.294;2023-04-03T17:05:38;9.00;99.90
563;DHT22;266;49.514;8.294;2023-04-03T17:08:06;8.80;99.90
563;DHT22;266;49.514;8.294;2023-04-03T17:10:34;8.80;99.90
563;DHT22;266;49.514;8.294;2023-04-03T17:13:02;8.60;99.90
563;DHT22;266;49.514;8.294;2023-04-03T17:15:31;8.50;99.90
563;DHT22;266;49.514;8.294;2023-04-03T17:17:59;8.40;99.90
563;DHT22;266;49.514;8.294;2023-04-03T17:20:27;8.30;99.90